sensor_id;sensor_type;location;lat;lon;timestamp;pressure;altitude;pressure_sealevel;temperature;humidity
78584;BME280;67880;46.082;18.234;2023-04-15T00:00:30;98612.09;;;7.70;85.45
78584;BME280;67880;46.082;18.234;2023-04-15T00:01:00;98613.09;;;7.77;85.16
78584;BME280;67880;46.082;18.234;2023-04-15T00:01:31;98607.09;;;7.75;85.48
78584;BME280;67880;46.082;18.234;2023-04-15T00:02:14;98611.25;;;7.78;84.45
78584;BME280;67880;46.082;18.234;2023-04-15T00:02:45;98611.44;;;7.76;84.87
78584;BME280;67880;46.082;18.234;2023-04-15T00:03:17;98605.06;;;7.77;84.56
78584;BME280;67880;46.082;18.234;2023-04-15T00:03:53;98608.09;;;7.74;84.74
78584;BME280;67880;46.082;18.234;2023-04-15T00:04:24;98608.06;;;7.66;85.06
78584;BME280;67880;46.082;18.234;2023-04-15T00:04:55;98608.94;;;7.67;84.79
78584;BME280;67880;46.082;18.234;2023-04-15T00:05:25;98606.94;;;7.69;84.38
78584;BME280;67880;46.082;18.234;2023-04-15T00:05:58;98610.75;;;7.66;84.49
78584;BME280;67880;46.082;18.234;2023-04-15T00:06:29;98608.94;;;7.75;85.01
78584;BME280;67880;46.082;18.234;2023-04-15T00:07:00;98608.91;;;7.83;84.58
78584;BME280;67880;46.082;18.234;2023-04-15T00:07:32;98607.09;;;7.83;84.50
78584;BME280;67880;46.082;18.234;2023-04-15T00:08:03;98608.09;;;7.82;84.57
78584;BME280;67880;46.082;18.234;2023-04-15T00:08:34;98610.75;;;7.82;84.57
78584;BME280;67880;46.082;18.234;2023-04-15T00:09:05;98614.91;;;7.85;84.55
78584;BME280;67880;46.082;18.234;2023-04-15T00:09:35;98609.56;;;7.85;85.33
78584;BME280;67880;46.082;18.234;2023-04-15T00:10:06;98605.56;;;7.89;85.07
78584;BME280;67880;46.082;18.234;2023-04-15T00:10:37;98612.09;;;7.86;84.35
78584;BME280;67880;46.082;18.234;2023-04-15T00:11:08;98612.59;;;7.82;84.23
78584;BME280;67880;46.082;18.234;2023-04-15T00:11:38;98619.78;;;7.81;84.63
78584;BME280;67880;46.082;18.234;2023-04-15T00:12:10;98615.94;;;7.84;84.77
78584;BME280;67880;46.082;18.234;2023-04-15T00:12:41;98610.94;;;7.89;84.77
78584;BME280;67880;46.082;18.234;2023-04-15T00:13:11;98614.09;;;7.93;84.79
78584;BME280;67880;46.082;18.234;2023-04-15T00:13:42;98610.94;;;7.89;84.25
78584;BME280;67880;46.082;18.234;2023-04-15T00:14:13;98615.78;;;7.94;84.66
78584;BME280;67880;46.082;18.234;2023-04-15T00:14:43;98607.06;;;7.92;84.73
78584;BME280;67880;46.082;18.234;2023-04-15T00:15:14;98617.63;;;7.93;84.33
78584;BME280;67880;46.082;18.234;2023-04-15T00:15:45;98610.91;;;7.97;84.24
78584;BME280;67880;46.082;18.234;2023-04-15T00:16:16;98612.56;;;7.98;83.64
78584;BME280;67880;46.082;18.234;2023-04-15T00:16:47;98616.09;;;7.99;83.87
78584;BME280;67880;46.082;18.234;2023-04-15T00:17:24;98613.75;;;7.96;84.22
78584;BME280;67880;46.082;18.234;2023-04-15T00:17:55;98613.28;;;7.92;84.03
78584;BME280;67880;46.082;18.234;2023-04-15T00:18:26;98609.06;;;7.98;83.90
78584;BME280;67880;46.082;18.234;2023-04-15T00:18:56;98611.91;;;8.04;83.97
78584;BME280;67880;46.082;18.234;2023-04-15T00:19:27;98613.06;;;8.10;83.92
78584;BME280;67880;46.082;18.234;2023-04-15T00:19:58;98614.91;;;8.09;83.89
78584;BME280;67880;46.082;18.234;2023-04-15T00:20:29;98615.25;;;8.06;83.89
78584;BME280;67880;46.082;18.234;2023-04-15T00:20:59;98611.91;;;8.04;83.89
78584;BME280;67880;46.082;18.234;2023-04-15T00:21:30;98612.59;;;8.06;84.13
78584;BME280;67880;46.082;18.234;2023-04-15T00:22:01;98613.75;;;8.04;83.76
78584;BME280;67880;46.082;18.234;2023-04-15T00:22:32;98602.22;;;8.03;83.50
78584;BME280;67880;46.082;18.234;2023-04-15T00:23:03;98606.41;;;8.06;84.25
78584;BME280;67880;46.082;18.234;2023-04-15T00:23:33;98614.06;;;8.09;84.32
78584;BME280;67880;46.082;18.234;2023-04-15T00:24:06;98606.88;;;8.09;83.54
78584;BME280;67880;46.082;18.234;2023-04-15T00:24:37;98602.38;;;8.10;83.68
78584;BME280;67880;46.082;18.234;2023-04-15T00:25:08;98607.72;;;8.10;83.74
78584;BME280;67880;46.082;18.234;2023-04-15T00:25:39;98608.72;;;8.09;83.89
78584;BME280;67880;46.082;18.234;2023-04-15T00:26:10;98609.25;;;8.12;83.77
78584;BME280;67880;46.082;18.234;2023-04-15T00:26:40;98601.91;;;8.06;83.61
78584;BME280;67880;46.082;18.234;2023-04-15T00:27:11;98607.75;;;8.02;83.74
78584;BME280;67880;46.082;18.234;2023-04-15T00:27:41;98604.56;;;7.98;83.81
78584;BME280;67880;46.082;18.234;2023-04-15T00:28:12;98600.38;;;8.04;83.78
78584;BME280;67880;46.082;18.234;2023-04-15T00:28:43;98595.03;;;8.04;84.21
78584;BME280;67880;46.082;18.234;2023-04-15T00:29:14;98600.56;;;8.02;83.95
78584;BME280;67880;46.082;18.234;2023-04-15T00:29:44;98600.91;;;7.99;83.70
78584;BME280;67880;46.082;18.234;2023-04-15T00:30:15;98602.06;;;7.97;83.76
78584;BME280;67880;46.082;18.234;2023-04-15T00:30:46;98599.56;;;7.95;84.26
78584;BME280;67880;46.082;18.234;2023-04-15T00:31:16;98607.22;;;7.98;84.00
78584;BME280;67880;46.082;18.234;2023-04-15T00:31:47;98606.06;;;8.01;84.22
78584;BME280;67880;46.082;18.234;2023-04-15T00:32:18;98605.25;;;8.00;83.98
78584;BME280;67880;46.082;18.234;2023-04-15T00:32:49;98602.75;;;7.99;84.11
78584;BME280;67880;46.082;18.234;2023-04-15T00:33:20;98601.06;;;7.90;84.35
78584;BME280;67880;46.082;18.234;2023-04-15T00:33:50;98602.22;;;7.95;84.28
78584;BME280;67880;46.082;18.234;2023-04-15T00:34:22;98601.06;;;7.98;84.39
78584;BME280;67880;46.082;18.234;2023-04-15T00:34:53;98602.41;;;7.94;84.43
78584;BME280;67880;46.082;18.234;2023-04-15T00:35:24;98600.06;;;7.91;84.40
78584;BME280;67880;46.082;18.234;2023-04-15T00:35:54;98606.09;;;7.93;84.17
78584;BME280;67880;46.082;18.234;2023-04-15T00:36:25;98601.91;;;7.90;83.91
78584;BME280;67880;46.082;18.234;2023-04-15T00:36:56;98602.25;;;7.87;84.17
78584;BME280;67880;46.082;18.234;2023-04-15T00:37:26;98599.56;;;7.87;84.28
78584;BME280;67880;46.082;18.234;2023-04-15T00:37:57;98601.25;;;7.88;84.67
78584;BME280;67880;46.082;18.234;2023-04-15T00:38:29;98597.75;;;7.87;84.55
78584;BME280;67880;46.082;18.234;2023-04-15T00:39:00;98596.91;;;7.87;84.50
78584;BME280;67880;46.082;18.234;2023-04-15T00:39:32;98597.56;;;7.89;84.03
78584;BME280;67880;46.082;18.234;2023-04-15T00:40:02;98594.22;;;7.87;84.43
78584;BME280;67880;46.082;18.234;2023-04-15T00:40:36;98595.56;;;7.83;84.26
78584;BME280;67880;46.082;18.234;2023-04-15T00:41:08;98588.88;;;7.87;83.94
78584;BME280;67880;46.082;18.234;2023-04-15T00:41:40;98593.72;;;7.83;84.17
78584;BME280;67880;46.082;18.234;2023-04-15T00:42:12;98594.91;;;7.81;84.25
78584;BME280;67880;46.082;18.234;2023-04-15T00:42:43;98594.88;;;7.73;84.66
78584;BME280;67880;46.082;18.234;2023-04-15T00:43:14;98596.88;;;7.79;84.86
78584;BME280;67880;46.082;18.234;2023-04-15T00:43:45;98603.94;;;7.80;84.46
78584;BME280;67880;46.082;18.234;2023-04-15T00:44:16;98595.91;;;7.80;84.35
78584;BME280;67880;46.082;18.234;2023-04-15T00:44:48;98607.75;;;7.85;84.43
78584;BME280;67880;46.082;18.234;2023-04-15T00:45:19;98601.25;;;7.88;84.45
78584;BME280;67880;46.082;18.234;2023-04-15T00:45:52;98602.91;;;7.89;84.49
78584;BME280;67880;46.082;18.234;2023-04-15T00:46:25;98600.41;;;7.87;84.28
78584;BME280;67880;46.082;18.234;2023-04-15T00:46:57;98604.41;;;7.92;83.83
78584;BME280;67880;46.082;18.234;2023-04-15T00:47:28;98605.06;;;7.85;84.27
78584;BME280;67880;46.082;18.234;2023-04-15T00:47:59;98602.25;;;7.87;84.00
78584;BME280;67880;46.082;18.234;2023-04-15T00:48:30;98609.56;;;7.85;84.03
78584;BME280;67880;46.082;18.234;2023-04-15T00:49:03;98605.75;;;7.87;84.45
78584;BME280;67880;46.082;18.234;2023-04-15T00:49:34;98609.25;;;7.88;84.51
78584;BME280;67880;46.082;18.234;2023-04-15T00:50:05;98602.25;;;7.87;84.59
78584;BME280;67880;46.082;18.234;2023-04-15T00:50:36;98606.59;;;7.80;84.45
78584;BME280;67880;46.082;18.234;2023-04-15T00:51:06;98602.41;;;7.77;84.68
78584;BME280;67880;46.082;18.234;2023-04-15T00:51:37;98602.91;;;7.81;84.91
78584;BME280;67880;46.082;18.234;2023-04-15T00:52:08;98609.56;;;7.85;84.67
78584;BME280;67880;46.082;18.234;2023-04-15T00:52:39;98608.09;;;7.74;84.72
78584;BME280;67880;46.082;18.234;2023-04-15T00:53:10;98608.75;;;7.68;85.28
78584;BME280;67880;46.082;18.234;2023-04-15T00:53:41;98601.91;;;7.66;85.67
78584;BME280;67880;46.082;18.234;2023-04-15T00:54:13;98605.25;;;7.68;85.19
78584;BME280;67880;46.082;18.234;2023-04-15T00:54:43;98597.06;;;7.77;85.23
78584;BME280;67880;46.082;18.234;2023-04-15T00:55:14;98597.56;;;7.81;85.04
78584;BME280;67880;46.082;18.234;2023-04-15T00:55:45;98601.41;;;7.86;84.81
78584;BME280;67880;46.082;18.234;2023-04-15T00:56:16;98597.56;;;7.89;84.36
78584;BME280;67880;46.082;18.234;2023-04-15T00:56:46;98603.91;;;7.88;84.81
78584;BME280;67880;46.082;18.234;2023-04-15T00:57:18;98602.06;;;7.88;84.74
78584;BME280;67880;46.082;18.234;2023-04-15T00:57:49;98596.06;;;7.86;84.31
78584;BME280;67880;46.082;18.234;2023-04-15T00:58:20;98601.25;;;7.88;84.91
78584;BME280;67880;46.082;18.234;2023-04-15T00:58:51;98601.41;;;7.86;85.18
78584;BME280;67880;46.082;18.234;2023-04-15T00:59:21;98592.41;;;7.87;84.50
78584;BME280;67880;46.082;18.234;2023-04-15T00:59:52;98599.91;;;7.92;84.77
78584;BME280;67880;46.082;18.234;2023-04-15T01:00:24;98595.72;;;7.90;84.97
78584;BME280;67880;46.082;18.234;2023-04-15T01:00:56;98592.22;;;7.89;84.50
78584;BME280;67880;46.082;18.234;2023-04-15T01:01:27;98594.41;;;7.94;84.37
78584;BME280;67880;46.082;18.234;2023-04-15T01:01:58;98597.56;;;7.89;84.55
78584;BME280;67880;46.082;18.234;2023-04-15T01:02:30;98595.72;;;7.90;84.57
78584;BME280;67880;46.082;18.234;2023-04-15T01:03:01;98594.38;;;7.85;84.38
78584;BME280;67880;46.082;18.234;2023-04-15T01:03:32;98595.91;;;7.88;84.92
78584;BME280;67880;46.082;18.234;2023-04-15T01:04:03;98590.03;;;7.84;84.78
78584;BME280;67880;46.082;18.234;2023-04-15T01:04:35;98590.88;;;7.85;84.70
78584;BME280;67880;46.082;18.234;2023-04-15T01:05:06;98592.72;;;7.84;84.38
78584;BME280;67880;46.082;18.234;2023-04-15T01:05:37;98595.91;;;7.80;84.71
78584;BME280;67880;46.082;18.234;2023-04-15T01:06:09;98598.59;;;7.80;85.00
78584;BME280;67880;46.082;18.234;2023-04-15T01:06:39;98601.91;;;7.82;84.67
78584;BME280;67880;46.082;18.234;2023-04-15T01:07:10;98602.56;;;7.84;85.10
78584;BME280;67880;46.082;18.234;2023-04-15T01:07:41;98595.75;;;7.81;84.68
78584;BME280;67880;46.082;18.234;2023-04-15T01:08:12;98589.56;;;7.81;84.88
78584;BME280;67880;46.082;18.234;2023-04-15T01:08:43;98595.22;;;7.78;84.95
78584;BME280;67880;46.082;18.234;2023-04-15T01:09:14;98596.41;;;7.75;84.96
78584;BME280;67880;46.082;18.234;2023-04-15T01:09:46;98592.91;;;7.67;85.00
78584;BME280;67880;46.082;18.234;2023-04-15T01:10:17;98596.56;;;7.66;84.97
78584;BME280;67880;46.082;18.234;2023-04-15T01:10:48;98600.25;;;7.65;85.74
78584;BME280;67880;46.082;18.234;2023-04-15T01:11:19;98594.56;;;7.68;85.56
78584;BME280;67880;46.082;18.234;2023-04-15T01:11:50;98596.72;;;7.64;85.45
78584;BME280;67880;46.082;18.234;2023-04-15T01:12:21;98596.72;;;7.64;85.62
78584;BME280;67880;46.082;18.234;2023-04-15T01:12:52;98587.72;;;7.65;85.40
78584;BME280;67880;46.082;18.234;2023-04-15T01:13:23;98591.38;;;7.64;85.33
78584;BME280;67880;46.082;18.234;2023-04-15T01:13:54;98591.38;;;7.64;85.44
78584;BME280;67880;46.082;18.234;2023-04-15T01:14:27;98591.38;;;7.72;84.87
78584;BME280;67880;46.082;18.234;2023-04-15T01:14:58;98591.06;;;7.75;85.25
78584;BME280;67880;46.082;18.234;2023-04-15T01:15:30;98589.03;;;7.77;85.41
78584;BME280;67880;46.082;18.234;2023-04-15T01:16:01;98590.25;;;7.67;85.29
78584;BME280;67880;46.082;18.234;2023-04-15T01:16:32;98598.09;;;7.60;85.67
78584;BME280;67880;46.082;18.234;2023-04-15T01:17:03;98578.88;;;7.56;85.71
78584;BME280;67880;46.082;18.234;2023-04-15T01:17:34;98586.88;;;7.56;85.38
78584;BME280;67880;46.082;18.234;2023-04-15T01:18:04;98589.91;;;7.62;85.62
78584;BME280;67880;46.082;18.234;2023-04-15T01:18:36;98581.88;;;7.62;86.08
78584;BME280;67880;46.082;18.234;2023-04-15T01:19:09;98590.72;;;7.62;85.91
78584;BME280;67880;46.082;18.234;2023-04-15T01:19:40;98584.56;;;7.62;85.84
78584;BME280;67880;46.082;18.234;2023-04-15T01:20:11;98578.03;;;7.64;85.39
78584;BME280;67880;46.082;18.234;2023-04-15T01:20:42;98588.53;;;7.66;85.41
78584;BME280;67880;46.082;18.234;2023-04-15T01:21:13;98577.72;;;7.67;85.20
78584;BME280;67880;46.082;18.234;2023-04-15T01:21:44;98585.56;;;7.69;85.04
78584;BME280;67880;46.082;18.234;2023-04-15T01:22:15;98585.72;;;7.67;84.90
78584;BME280;67880;46.082;18.234;2023-04-15T01:22:47;98579.38;;;7.68;85.25
78584;BME280;67880;46.082;18.234;2023-04-15T01:23:20;98583.72;;;7.61;85.40
78584;BME280;67880;46.082;18.234;2023-04-15T01:23:52;98583.69;;;7.53;85.45
78584;BME280;67880;46.082;18.234;2023-04-15T01:24:26;98582.56;;;7.47;86.00
78584;BME280;67880;46.082;18.234;2023-04-15T01:25:05;98584.72;;;7.44;86.22
78584;BME280;67880;46.082;18.234;2023-04-15T01:25:40;98592.19;;;7.40;86.32
78584;BME280;67880;46.082;18.234;2023-04-15T01:26:12;98590.03;;;7.36;86.54
78584;BME280;67880;46.082;18.234;2023-04-15T01:26:44;98588.22;;;7.28;86.43
78584;BME280;67880;46.082;18.234;2023-04-15T01:27:14;98584.19;;;7.24;86.95
78584;BME280;67880;46.082;18.234;2023-04-15T01:27:45;98586.69;;;7.25;86.89
78584;BME280;67880;46.082;18.234;2023-04-15T01:28:17;98591.84;;;7.27;86.77
78584;BME280;67880;46.082;18.234;2023-04-15T01:28:47;98584.19;;;7.24;86.92
78584;BME280;67880;46.082;18.234;2023-04-15T01:29:18;98584.66;;;7.19;87.35
78584;BME280;67880;46.082;18.234;2023-04-15T01:29:49;98585.69;;;7.18;87.14
78584;BME280;67880;46.082;18.234;2023-04-15T01:30:19;98589.19;;;7.19;86.81
78584;BME280;67880;46.082;18.234;2023-04-15T01:31:13;98596.00;;;7.13;86.53
78584;BME280;67880;46.082;18.234;2023-04-15T01:31:54;98591.31;;;7.07;86.90
78584;BME280;67880;46.082;18.234;2023-04-15T01:32:26;98599.50;;;7.14;87.31
78584;BME280;67880;46.082;18.234;2023-04-15T01:32:56;98604.53;;;7.17;87.01
78584;BME280;67880;46.082;18.234;2023-04-15T01:33:27;98596.88;;;7.22;86.66
78584;BME280;67880;46.082;18.234;2023-04-15T01:33:58;98598.00;;;7.19;86.59
78584;BME280;67880;46.082;18.234;2023-04-15T01:34:29;98598.00;;;7.19;86.96
78584;BME280;67880;46.082;18.234;2023-04-15T01:34:59;98598.50;;;7.15;86.81
78584;BME280;67880;46.082;18.234;2023-04-15T01:35:30;98593.84;;;7.17;87.28
78584;BME280;67880;46.082;18.234;2023-04-15T01:36:01;98601.84;;;7.17;86.78
78584;BME280;67880;46.082;18.234;2023-04-15T01:36:33;98602.88;;;7.16;87.53
78584;BME280;67880;46.082;18.234;2023-04-15T01:37:03;98599.50;;;7.14;87.37
78584;BME280;67880;46.082;18.234;2023-04-15T01:37:35;98593.16;;;7.15;87.11
78584;BME280;67880;46.082;18.234;2023-04-15T01:38:08;98597.00;;;7.20;86.81
78584;BME280;67880;46.082;18.234;2023-04-15T01:38:39;98601.53;;;7.20;86.43
78584;BME280;67880;46.082;18.234;2023-04-15T01:39:10;98595.69;;;7.16;86.89
78584;BME280;67880;46.082;18.234;2023-04-15T01:39:41;98597.53;;;7.16;86.92
78584;BME280;67880;46.082;18.234;2023-04-15T01:40:11;98599.03;;;7.18;87.08
78584;BME280;67880;46.082;18.234;2023-04-15T01:40:43;98593.19;;;7.23;86.94
78584;BME280;67880;46.082;18.234;2023-04-15T01:41:14;98597.19;;;7.27;86.43
78584;BME280;67880;46.082;18.234;2023-04-15T01:41:44;98599.03;;;7.26;86.26
78584;BME280;67880;46.082;18.234;2023-04-15T01:42:15;98596.69;;;7.23;86.46
78584;BME280;67880;46.082;18.234;2023-04-15T01:42:46;98599.19;;;7.25;86.39
78584;BME280;67880;46.082;18.234;2023-04-15T01:43:16;98600.69;;;7.27;86.68
78584;BME280;67880;46.082;18.234;2023-04-15T01:43:48;98597.53;;;7.24;86.59
78584;BME280;67880;46.082;18.234;2023-04-15T01:44:18;98597.53;;;7.24;86.66
78584;BME280;67880;46.082;18.234;2023-04-15T01:44:49;98591.66;;;7.20;86.60
78584;BME280;67880;46.082;18.234;2023-04-15T01:45:20;98597.19;;;7.19;86.90
78584;BME280;67880;46.082;18.234;2023-04-15T01:45:51;98598.00;;;7.19;87.23
78584;BME280;67880;46.082;18.234;2023-04-15T01:46:22;98599.19;;;7.17;87.18
78584;BME280;67880;46.082;18.234;2023-04-15T01:46:52;98600.84;;;7.18;87.50
78584;BME280;67880;46.082;18.234;2023-04-15T01:47:23;98603.69;;;7.16;87.01
78584;BME280;67880;46.082;18.234;2023-04-15T01:47:54;98602.34;;;7.20;86.96
78584;BME280;67880;46.082;18.234;2023-04-15T01:48:25;98595.19;;;7.21;86.81
78584;BME280;67880;46.082;18.234;2023-04-15T01:48:56;98600.38;;;7.22;86.80
78584;BME280;67880;46.082;18.234;2023-04-15T01:49:27;98599.53;;;7.22;86.86
78584;BME280;67880;46.082;18.234;2023-04-15T01:49:57;98600.19;;;7.24;87.25
78584;BME280;67880;46.082;18.234;2023-04-15T01:50:28;98604.72;;;7.23;87.28
78584;BME280;67880;46.082;18.234;2023-04-15T01:50:58;98603.72;;;7.24;86.94
78584;BME280;67880;46.082;18.234;2023-04-15T01:51:29;98610.72;;;7.25;87.15
78584;BME280;67880;46.082;18.234;2023-04-15T01:52:00;98593.38;;;7.21;86.79
78584;BME280;67880;46.082;18.234;2023-04-15T01:52:30;98598.19;;;7.26;86.84
78584;BME280;67880;46.082;18.234;2023-04-15T01:53:01;98603.22;;;7.29;86.93
78584;BME280;67880;46.082;18.234;2023-04-15T01:53:32;98610.88;;;7.32;87.12
78584;BME280;67880;46.082;18.234;2023-04-15T01:54:03;98601.22;;;7.31;86.88
78584;BME280;67880;46.082;18.234;2023-04-15T01:54:34;98598.72;;;7.29;86.64
78584;BME280;67880;46.082;18.234;2023-04-15T01:55:05;98604.41;;;7.35;86.44
78584;BME280;67880;46.082;18.234;2023-04-15T01:55:37;98600.88;;;7.34;86.43
78584;BME280;67880;46.082;18.234;2023-04-15T01:56:08;98601.03;;;7.32;86.50
78584;BME280;67880;46.082;18.234;2023-04-15T01:56:38;98603.53;;;7.34;86.65
78584;BME280;67880;46.082;18.234;2023-04-15T01:57:09;98595.69;;;7.32;86.30
78584;BME280;67880;46.082;18.234;2023-04-15T01:57:39;98605.72;;;7.30;86.50
78584;BME280;67880;46.082;18.234;2023-04-15T01:58:10;98601.22;;;7.31;86.83
78584;BME280;67880;46.082;18.234;2023-04-15T01:58:41;98597.06;;;7.28;86.86
78584;BME280;67880;46.082;18.234;2023-04-15T01:59:12;98598.88;;;7.28;86.65
78584;BME280;67880;46.082;18.234;2023-04-15T01:59:43;98601.56;;;7.28;86.54
78584;BME280;67880;46.082;18.234;2023-04-15T02:00:13;98599.03;;;7.26;87.07
78584;BME280;67880;46.082;18.234;2023-04-15T02:00:44;98606.91;;;7.28;86.40
78584;BME280;67880;46.082;18.234;2023-04-15T02:01:15;98607.88;;;7.27;86.23
78584;BME280;67880;46.082;18.234;2023-04-15T02:01:48;98599.38;;;7.23;86.26
78584;BME280;67880;46.082;18.234;2023-04-15T02:02:19;98599.69;;;7.20;86.15
78584;BME280;67880;46.082;18.234;2023-04-15T02:02:50;98612.06;;;7.21;85.97
78584;BME280;67880;46.082;18.234;2023-04-15T02:03:20;98602.34;;;7.20;86.52
78584;BME280;67880;46.082;18.234;2023-04-15T02:03:51;98605.53;;;7.16;86.73
78584;BME280;67880;46.082;18.234;2023-04-15T02:04:22;98604.84;;;7.14;86.59
78584;BME280;67880;46.082;18.234;2023-04-15T02:04:52;98605.84;;;7.13;86.72
78584;BME280;67880;46.082;18.234;2023-04-15T02:05:24;98604.19;;;7.12;87.14
78584;BME280;67880;46.082;18.234;2023-04-15T02:05:55;98612.19;;;7.12;87.29
78584;BME280;67880;46.082;18.234;2023-04-15T02:06:26;98613.69;;;7.14;87.43
78584;BME280;67880;46.082;18.234;2023-04-15T02:06:57;98605.50;;;7.07;87.25
78584;BME280;67880;46.082;18.234;2023-04-15T02:07:28;98610.81;;;7.07;87.42
78584;BME280;67880;46.082;18.234;2023-04-15T02:08:01;98616.03;;;7.09;86.90
78584;BME280;67880;46.082;18.234;2023-04-15T02:08:33;98614.84;;;7.12;87.06
78584;BME280;67880;46.082;18.234;2023-04-15T02:09:04;98612.19;;;7.12;86.94
78584;BME280;67880;46.082;18.234;2023-04-15T02:09:34;98616.84;;;7.10;86.79
78584;BME280;67880;46.082;18.234;2023-04-15T02:10:05;98606.31;;;7.08;87.36
78584;BME280;67880;46.082;18.234;2023-04-15T02:10:36;98613.84;;;7.04;86.96
78584;BME280;67880;46.082;18.234;2023-04-15T02:11:07;98609.81;;;7.00;86.79
78584;BME280;67880;46.082;18.234;2023-04-15T02:11:37;98609.00;;;7.08;87.38
78584;BME280;67880;46.082;18.234;2023-04-15T02:12:08;98616.03;;;7.09;87.19
78584;BME280;67880;46.082;18.234;2023-04-15T02:12:39;98614.16;;;7.01;87.06
78584;BME280;67880;46.082;18.234;2023-04-15T02:13:10;98615.84;;;7.11;86.36
78584;BME280;67880;46.082;18.234;2023-04-15T02:13:40;98615.03;;;7.10;86.83
78584;BME280;67880;46.082;18.234;2023-04-15T02:14:11;98622.03;;;7.11;87.03
78584;BME280;67880;46.082;18.234;2023-04-15T02:14:42;98624.34;;;7.06;87.11
78584;BME280;67880;46.082;18.234;2023-04-15T02:15:12;98626.16;;;6.97;87.24
78584;BME280;67880;46.082;18.234;2023-04-15T02:15:50;98629.00;;;6.96;86.90
78584;BME280;67880;46.082;18.234;2023-04-15T02:16:21;98626.81;;;6.99;86.96
78584;BME280;67880;46.082;18.234;2023-04-15T02:16:52;98625.69;;;7.02;86.64
78584;BME280;67880;46.082;18.234;2023-04-15T02:17:23;98624.00;;;7.01;86.90
78584;BME280;67880;46.082;18.234;2023-04-15T02:17:53;98624.03;;;7.09;86.96
78584;BME280;67880;46.082;18.234;2023-04-15T02:18:24;98625.88;;;7.09;86.95
78584;BME280;67880;46.082;18.234;2023-04-15T02:18:55;98617.16;;;7.06;86.19
78584;BME280;67880;46.082;18.234;2023-04-15T02:19:26;98618.69;;;7.09;86.71
78584;BME280;67880;46.082;18.234;2023-04-15T02:19:57;98624.03;;;7.17;86.64
78584;BME280;67880;46.082;18.234;2023-04-15T02:20:28;98622.53;;;7.15;86.04
78584;BME280;67880;46.082;18.234;2023-04-15T02:21:00;98621.38;;;7.09;86.47
78584;BME280;67880;46.082;18.234;2023-04-15T02:21:31;98627.72;;;7.16;86.45
78584;BME280;67880;46.082;18.234;2023-04-15T02:22:02;98627.38;;;7.19;86.27
78584;BME280;67880;46.082;18.234;2023-04-15T02:22:33;98626.53;;;7.19;86.18
78584;BME280;67880;46.082;18.234;2023-04-15T02:23:04;98626.22;;;7.22;86.31
78584;BME280;67880;46.082;18.234;2023-04-15T02:23:36;98625.72;;;7.26;85.71
78584;BME280;67880;46.082;18.234;2023-04-15T02:24:07;98621.72;;;7.22;85.24
78584;BME280;67880;46.082;18.234;2023-04-15T02:24:37;98627.91;;;7.23;85.20
78584;BME280;67880;46.082;18.234;2023-04-15T02:25:08;98622.03;;;7.19;86.08
78584;BME280;67880;46.082;18.234;2023-04-15T02:25:39;98629.03;;;7.20;85.80
78584;BME280;67880;46.082;18.234;2023-04-15T02:26:10;98637.88;;;7.21;86.07
78584;BME280;67880;46.082;18.234;2023-04-15T02:26:41;98628.38;;;7.18;86.32
78584;BME280;67880;46.082;18.234;2023-04-15T02:27:15;98628.72;;;7.15;86.37
78584;BME280;67880;46.082;18.234;2023-04-15T02:27:47;98625.88;;;7.17;86.50
78584;BME280;67880;46.082;18.234;2023-04-15T02:28:17;98624.22;;;7.16;86.62
78584;BME280;67880;46.082;18.234;2023-04-15T02:28:48;98621.53;;;7.16;86.35
78584;BME280;67880;46.082;18.234;2023-04-15T02:29:20;98625.72;;;7.18;86.41
78584;BME280;67880;46.082;18.234;2023-04-15T02:29:52;98626.06;;;7.15;86.51
78584;BME280;67880;46.082;18.234;2023-04-15T02:30:23;98631.56;;;7.22;86.31
78584;BME280;67880;46.082;18.234;2023-04-15T02:30:54;98622.03;;;7.27;85.69
78584;BME280;67880;46.082;18.234;2023-04-15T02:31:26;98631.09;;;7.35;86.06
78584;BME280;67880;46.082;18.234;2023-04-15T02:31:57;98620.56;;;7.33;85.75
78584;BME280;67880;46.082;18.234;2023-04-15T02:32:28;98629.41;;;7.33;84.95
78584;BME280;67880;46.082;18.234;2023-04-15T02:33:02;98630.06;;;7.27;85.08
78584;BME280;67880;46.082;18.234;2023-04-15T02:33:33;98622.22;;;7.26;85.38
78584;BME280;67880;46.082;18.234;2023-04-15T02:34:03;98631.22;;;7.25;85.90
78584;BME280;67880;46.082;18.234;2023-04-15T02:34:34;98624.72;;;7.19;85.96
78584;BME280;67880;46.082;18.234;2023-04-15T02:35:06;98629.09;;;7.28;85.51
78584;BME280;67880;46.082;18.234;2023-04-15T02:35:38;98631.75;;;7.37;85.14
78584;BME280;67880;46.082;18.234;2023-04-15T02:36:11;98625.94;;;7.41;85.29
78584;BME280;67880;46.082;18.234;2023-04-15T02:36:42;98623.75;;;7.45;84.97
78584;BME280;67880;46.082;18.234;2023-04-15T02:37:13;98623.09;;;7.43;85.31
78584;BME280;67880;46.082;18.234;2023-04-15T02:37:44;98627.09;;;7.39;84.77
78584;BME280;67880;46.082;18.234;2023-04-15T02:38:15;98629.56;;;7.32;85.03
78584;BME280;67880;46.082;18.234;2023-04-15T02:38:47;98624.25;;;7.32;84.88
78584;BME280;67880;46.082;18.234;2023-04-15T02:39:17;98623.41;;;7.31;84.97
78584;BME280;67880;46.082;18.234;2023-04-15T02:39:49;98625.75;;;7.35;85.34
78584;BME280;67880;46.082;18.234;2023-04-15T02:40:20;98619.72;;;7.32;85.61
78584;BME280;67880;46.082;18.234;2023-04-15T02:40:50;98621.09;;;7.37;85.70
78584;BME280;67880;46.082;18.234;2023-04-15T02:41:21;98627.25;;;7.37;84.93
78584;BME280;67880;46.082;18.234;2023-04-15T02:41:56;98618.72;;;7.33;85.28
78584;BME280;67880;46.082;18.234;2023-04-15T02:42:28;98625.06;;;7.32;85.58
78584;BME280;67880;46.082;18.234;2023-04-15T02:42:59;98620.06;;;7.29;85.86
78584;BME280;67880;46.082;18.234;2023-04-15T02:43:30;98627.25;;;7.29;85.38
78584;BME280;67880;46.082;18.234;2023-04-15T02:44:00;98622.38;;;7.24;85.36
78584;BME280;67880;46.082;18.234;2023-04-15T02:44:31;98628.56;;;7.25;85.64
78584;BME280;67880;46.082;18.234;2023-04-15T02:45:04;98627.56;;;7.26;85.60
78584;BME280;67880;46.082;18.234;2023-04-15T02:45:35;98631.91;;;7.27;85.99
78584;BME280;67880;46.082;18.234;2023-04-15T02:46:06;98625.91;;;7.25;85.62